sensor_id;sensor_type;location;lat;lon;timestamp;P1;durP1;ratioP1;P2;durP2;ratioP2
11006;SDS011;8186;57.652;11.968;2023-07-31T00:00:51;2.80;;;1.53;;
11006;SDS011;8186;57.652;11.968;2023-07-31T00:03:17;2.80;;;1.33;;
11006;SDS011;8186;57.652;11.968;2023-07-31T00:05:44;4.23;;;1.60;;
11006;SDS011;8186;57.652;11.968;2023-07-31T00:08:11;3.90;;;1.57;;
11006;SDS011;8186;57.652;11.968;2023-07-31T00:10:40;3.07;;;1.60;;
11006;SDS011;8186;57.652;11.968;2023-07-31T00:13:07;3.10;;;1.43;;
11006;SDS011;8186;57.652;11.968;2023-07-31T00:15:33;5.20;;;1.50;;
11006;SDS011;8186;57.652;11.968;2023-07-31T00:18:00;3.13;;;1.33;;
11006;SDS011;8186;57.652;11.968;2023-07-31T00:20:27;6.07;;;1.50;;
11006;SDS011;8186;57.652;11.968;2023-07-31T00:22:54;4.33;;;1.53;;
11006;SDS011;8186;57.652;11.968;2023-07-31T00:25:21;4.10;;;1.67;;
11006;SDS011;8186;57.652;11.968;2023-07-31T00:27:49;3.17;;;1.43;;
11006;SDS011;8186;57.652;11.968;2023-07-31T00:30:16;2.97;;;1.60;;
11006;SDS011;8186;57.652;11.968;2023-07-31T00:32:43;2.67;;;1.37;;
11006;SDS011;8186;57.652;11.968;2023-07-31T00:35:10;2.13;;;1.40;;
11006;SDS011;8186;57.652;11.968;2023-07-31T00:37:37;2.13;;;1.40;;
11006;SDS011;8186;57.652;11.968;2023-07-31T00:40:04;6.20;;;1.50;;
11006;SDS011;8186;57.652;11.968;2023-07-31T00:42:32;2.77;;;1.53;;
11006;SDS011;8186;57.652;11.968;2023-07-31T00:45:00;3.73;;;1.80;;
11006;SDS011;8186;57.652;11.968;2023-07-31T00:47:27;3.33;;;1.63;;
11006;SDS011;8186;57.652;11.968;2023-07-31T00:49:54;1.53;;;1.20;;
11006;SDS011;8186;57.652;11.968;2023-07-31T00:52:21;2.90;;;1.50;;
11006;SDS011;8186;57.652;11.968;2023-07-31T00:54:48;3.53;;;1.60;;
11006;SDS011;8186;57.652;11.968;2023-07-31T00:57:15;3.87;;;1.47;;
11006;SDS011;8186;57.652;11.968;2023-07-31T00:59:42;2.43;;;1.47;;
11006;SDS011;8186;57.652;11.968;2023-07-31T01:02:10;3.93;;;1.33;;
11006;SDS011;8186;57.652;11.968;2023-07-31T01:04:37;6.23;;;1.60;;
11006;SDS011;8186;57.652;11.968;2023-07-31T01:07:06;3.67;;;1.50;;
11006;SDS011;8186;57.652;11.968;2023-07-31T01:09:40;3.00;;;1.57;;
11006;SDS011;8186;57.652;11.968;2023-07-31T01:12:13;3.00;;;1.43;;
11006;SDS011;8186;57.652;11.968;2023-07-31T01:14:42;2.13;;;1.57;;
11006;SDS011;8186;57.652;11.968;2023-07-31T01:17:18;6.00;;;1.60;;
11006;SDS011;8186;57.652;11.968;2023-07-31T01:19:45;2.00;;;1.47;;
11006;SDS011;8186;57.652;11.968;2023-07-31T01:22:23;3.97;;;1.80;;
11006;SDS011;8186;57.652;11.968;2023-07-31T01:24:59;3.93;;;1.30;;
11006;SDS011;8186;57.652;11.968;2023-07-31T01:27:39;3.47;;;2.00;;
11006;SDS011;8186;57.652;11.968;2023-07-31T01:30:14;3.73;;;1.40;;
11006;SDS011;8186;57.652;11.968;2023-07-31T01:32:43;3.37;;;1.63;;
11006;SDS011;8186;57.652;11.968;2023-07-31T01:35:10;2.93;;;1.80;;
11006;SDS011;8186;57.652;11.968;2023-07-31T01:37:37;3.40;;;1.73;;
11006;SDS011;8186;57.652;11.968;2023-07-31T01:40:04;2.93;;;1.70;;
11006;SDS011;8186;57.652;11.968;2023-07-31T01:42:32;2.67;;;1.50;;
11006;SDS011;8186;57.652;11.968;2023-07-31T01:45:00;2.17;;;1.57;;
11006;SDS011;8186;57.652;11.968;2023-07-31T01:47:27;3.87;;;1.40;;
11006;SDS011;8186;57.652;11.968;2023-07-31T01:49:54;3.67;;;1.60;;
11006;SDS011;8186;57.652;11.968;2023-07-31T01:52:21;3.93;;;1.40;;
11006;SDS011;8186;57.652;11.968;2023-07-31T01:54:48;4.23;;;1.40;;
11006;SDS011;8186;57.652;11.968;2023-07-31T01:57:15;3.03;;;1.60;;
11006;SDS011;8186;57.652;11.968;2023-07-31T01:59:42;2.87;;;1.60;;
11006;SDS011;8186;57.652;11.968;2023-07-31T02:02:10;3.80;;;1.60;;
11006;SDS011;8186;57.652;11.968;2023-07-31T02:04:37;2.30;;;1.37;;
11006;SDS011;8186;57.652;11.968;2023-07-31T02:07:05;3.47;;;1.60;;
11006;SDS011;8186;57.652;11.968;2023-07-31T02:09:32;2.23;;;1.57;;
11006;SDS011;8186;57.652;11.968;2023-07-31T02:11:59;3.43;;;1.37;;
11006;SDS011;8186;57.652;11.968;2023-07-31T02:14:25;8.60;;;1.90;;
11006;SDS011;8186;57.652;11.968;2023-07-31T02:16:52;1.73;;;1.30;;
11006;SDS011;8186;57.652;11.968;2023-07-31T02:19:21;2.60;;;1.50;;
11006;SDS011;8186;57.652;11.968;2023-07-31T02:21:47;2.83;;;1.70;;
11006;SDS011;8186;57.652;11.968;2023-07-31T02:24:14;4.43;;;1.60;;
11006;SDS011;8186;57.652;11.968;2023-07-31T02:26:41;1.90;;;1.33;;
11006;SDS011;8186;57.652;11.968;2023-07-31T02:29:08;2.43;;;1.50;;
11006;SDS011;8186;57.652;11.968;2023-07-31T02:31:35;4.23;;;1.50;;
11006;SDS011;8186;57.652;11.968;2023-07-31T02:34:02;3.47;;;1.50;;
11006;SDS011;8186;57.652;11.968;2023-07-31T02:36:30;3.03;;;1.63;;
11006;SDS011;8186;57.652;11.968;2023-07-31T02:38:57;2.80;;;1.30;;
11006;SDS011;8186;57.652;11.968;2023-07-31T02:41:26;2.67;;;1.47;;
11006;SDS011;8186;57.652;11.968;2023-07-31T02:43:53;3.70;;;1.50;;
11006;SDS011;8186;57.652;11.968;2023-07-31T02:46:20;3.27;;;2.00;;
11006;SDS011;8186;57.652;11.968;2023-07-31T02:48:49;5.83;;;1.40;;
11006;SDS011;8186;57.652;11.968;2023-07-31T02:51:16;2.43;;;1.53;;
11006;SDS011;8186;57.652;11.968;2023-07-31T02:53:44;2.07;;;1.47;;
11006;SDS011;8186;57.652;11.968;2023-07-31T02:56:11;3.20;;;1.90;;
11006;SDS011;8186;57.652;11.968;2023-07-31T02:58:38;3.30;;;2.10;;
11006;SDS011;8186;57.652;11.968;2023-07-31T03:01:05;4.57;;;1.77;;
11006;SDS011;8186;57.652;11.968;2023-07-31T03:03:32;2.87;;;1.83;;
11006;SDS011;8186;57.652;11.968;2023-07-31T03:05:58;1.90;;;1.43;;
11006;SDS011;8186;57.652;11.968;2023-07-31T03:08:25;4.77;;;1.87;;
11006;SDS011;8186;57.652;11.968;2023-07-31T03:10:54;2.73;;;1.60;;
11006;SDS011;8186;57.652;11.968;2023-07-31T03:13:21;7.27;;;1.80;;
11006;SDS011;8186;57.652;11.968;2023-07-31T03:15:48;2.80;;;1.57;;
11006;SDS011;8186;57.652;11.968;2023-07-31T03:18:15;4.50;;;1.60;;
11006;SDS011;8186;57.652;11.968;2023-07-31T03:20:42;3.80;;;1.67;;
11006;SDS011;8186;57.652;11.968;2023-07-31T03:23:09;4.60;;;1.70;;
11006;SDS011;8186;57.652;11.968;2023-07-31T03:25:36;2.17;;;1.63;;
11006;SDS011;8186;57.652;11.968;2023-07-31T03:28:04;7.27;;;2.20;;
11006;SDS011;8186;57.652;11.968;2023-07-31T03:30:31;5.57;;;1.80;;
11006;SDS011;8186;57.652;11.968;2023-07-31T03:32:58;5.07;;;2.03;;
11006;SDS011;8186;57.652;11.968;2023-07-31T03:35:25;2.83;;;1.43;;
11006;SDS011;8186;57.652;11.968;2023-07-31T03:37:52;5.00;;;1.90;;
11006;SDS011;8186;57.652;11.968;2023-07-31T03:40:19;4.13;;;1.80;;
11006;SDS011;8186;57.652;11.968;2023-07-31T03:42:46;4.60;;;2.00;;
11006;SDS011;8186;57.652;11.968;2023-07-31T03:45:14;5.80;;;2.40;;
11006;SDS011;8186;57.652;11.968;2023-07-31T03:47:41;8.63;;;1.97;;
11006;SDS011;8186;57.652;11.968;2023-07-31T03:50:08;4.13;;;1.50;;
11006;SDS011;8186;57.652;11.968;2023-07-31T03:52:35;2.87;;;1.80;;
11006;SDS011;8186;57.652;11.968;2023-07-31T03:55:02;4.47;;;1.93;;
11006;SDS011;8186;57.652;11.968;2023-07-31T03:57:29;4.00;;;1.97;;
11006;SDS011;8186;57.652;11.968;2023-07-31T03:59:57;4.27;;;1.70;;
11006;SDS011;8186;57.652;11.968;2023-07-31T04:02:25;5.70;;;2.00;;
11006;SDS011;8186;57.652;11.968;2023-07-31T04:04:52;4.30;;;2.33;;
11006;SDS011;8186;57.652;11.968;2023-07-31T04:07:20;3.07;;;2.00;;
11006;SDS011;8186;57.652;11.968;2023-07-31T04:09:49;3.87;;;1.80;;
11006;SDS011;8186;57.652;11.968;2023-07-31T04:12:16;3.43;;;1.90;;
11006;SDS011;8186;57.652;11.968;2023-07-31T04:14:43;4.90;;;2.03;;
11006;SDS011;8186;57.652;11.968;2023-07-31T04:17:09;5.20;;;2.07;;
11006;SDS011;8186;57.652;11.968;2023-07-31T04:19:38;4.03;;;1.97;;
11006;SDS011;8186;57.652;11.968;2023-07-31T04:22:05;6.67;;;2.40;;
11006;SDS011;8186;57.652;11.968;2023-07-31T04:24:31;3.77;;;2.27;;
11006;SDS011;8186;57.652;11.968;2023-07-31T04:26:58;4.60;;;2.10;;
11006;SDS011;8186;57.652;11.968;2023-07-31T04:29:25;3.30;;;1.93;;
11006;SDS011;8186;57.652;11.968;2023-07-31T04:31:52;3.70;;;2.00;;
11006;SDS011;8186;57.652;11.968;2023-07-31T04:34:19;3.37;;;2.23;;
11006;SDS011;8186;57.652;11.968;2023-07-31T04:36:47;5.40;;;2.03;;
11006;SDS011;8186;57.652;11.968;2023-07-31T04:39:14;4.50;;;2.20;;
11006;SDS011;8186;57.652;11.968;2023-07-31T04:41:41;4.73;;;1.97;;
11006;SDS011;8186;57.652;11.968;2023-07-31T04:44:08;6.27;;;2.30;;
11006;SDS011;8186;57.652;11.968;2023-07-31T04:46:36;3.23;;;1.87;;
11006;SDS011;8186;57.652;11.968;2023-07-31T04:49:03;6.53;;;2.37;;
11006;SDS011;8186;57.652;11.968;2023-07-31T04:51:30;6.20;;;2.57;;
11006;SDS011;8186;57.652;11.968;2023-07-31T04:53:58;7.20;;;2.43;;
11006;SDS011;8186;57.652;11.968;2023-07-31T04:56:25;3.53;;;2.60;;
11006;SDS011;8186;57.652;11.968;2023-07-31T04:58:52;6.83;;;3.30;;
11006;SDS011;8186;57.652;11.968;2023-07-31T05:01:20;3.87;;;2.50;;
11006;SDS011;8186;57.652;11.968;2023-07-31T05:03:47;7.73;;;3.10;;
11006;SDS011;8186;57.652;11.968;2023-07-31T05:06:14;4.30;;;2.33;;
11006;SDS011;8186;57.652;11.968;2023-07-31T05:08:41;6.10;;;2.80;;
11006;SDS011;8186;57.652;11.968;2023-07-31T05:11:09;4.37;;;2.50;;
11006;SDS011;8186;57.652;11.968;2023-07-31T05:13:36;4.03;;;2.00;;
11006;SDS011;8186;57.652;11.968;2023-07-31T05:16:03;6.27;;;2.60;;
11006;SDS011;8186;57.652;11.968;2023-07-31T05:18:30;4.13;;;2.57;;
11006;SDS011;8186;57.652;11.968;2023-07-31T05:20:57;5.53;;;2.77;;
11006;SDS011;8186;57.652;11.968;2023-07-31T05:23:24;7.57;;;2.73;;
11006;SDS011;8186;57.652;11.968;2023-07-31T05:25:51;7.40;;;2.40;;
11006;SDS011;8186;57.652;11.968;2023-07-31T05:28:20;7.17;;;2.17;;
11006;SDS011;8186;57.652;11.968;2023-07-31T05:30:47;7.67;;;2.57;;
11006;SDS011;8186;57.652;11.968;2023-07-31T05:33:14;10.23;;;2.30;;
11006;SDS011;8186;57.652;11.968;2023-07-31T05:35:41;8.50;;;3.10;;
11006;SDS011;8186;57.652;11.968;2023-07-31T05:38:10;7.80;;;2.70;;
11006;SDS011;8186;57.652;11.968;2023-07-31T05:40:36;6.17;;;2.20;;
11006;SDS011;8186;57.652;11.968;2023-07-31T05:43:03;6.80;;;2.23;;
11006;SDS011;8186;57.652;11.968;2023-07-31T05:45:33;5.27;;;2.47;;
11006;SDS011;8186;57.652;11.968;2023-07-31T05:48:00;6.67;;;2.40;;
11006;SDS011;8186;57.652;11.968;2023-07-31T05:50:26;10.07;;;2.90;;
11006;SDS011;8186;57.652;11.968;2023-07-31T05:52:53;5.80;;;2.20;;
11006;SDS011;8186;57.652;11.968;2023-07-31T05:55:20;5.97;;;2.70;;
11006;SDS011;8186;57.652;11.968;2023-07-31T05:57:47;5.30;;;2.30;;
11006;SDS011;8186;57.652;11.968;2023-07-31T06:00:14;3.57;;;1.83;;
11006;SDS011;8186;57.652;11.968;2023-07-31T06:02:43;9.20;;;2.60;;
11006;SDS011;8186;57.652;11.968;2023-07-31T06:05:10;8.50;;;2.33;;
11006;SDS011;8186;57.652;11.968;2023-07-31T06:07:37;5.60;;;2.43;;
11006;SDS011;8186;57.652;11.968;2023-07-31T06:10:04;8.07;;;2.43;;
11006;SDS011;8186;57.652;11.968;2023-07-31T06:12:31;6.30;;;2.13;;
11006;SDS011;8186;57.652;11.968;2023-07-31T06:14:58;6.53;;;2.23;;
11006;SDS011;8186;57.652;11.968;2023-07-31T06:17:26;4.70;;;2.27;;
11006;SDS011;8186;57.652;11.968;2023-07-31T06:19:54;7.47;;;2.23;;
11006;SDS011;8186;57.652;11.968;2023-07-31T06:22:21;6.73;;;2.10;;
11006;SDS011;8186;57.652;11.968;2023-07-31T06:24:48;4.57;;;1.83;;
11006;SDS011;8186;57.652;11.968;2023-07-31T06:27:15;3.50;;;1.67;;
11006;SDS011;8186;57.652;11.968;2023-07-31T06:29:42;6.10;;;2.20;;
11006;SDS011;8186;57.652;11.968;2023-07-31T06:32:08;7.77;;;1.77;;
11006;SDS011;8186;57.652;11.968;2023-07-31T06:34:35;4.77;;;1.73;;
11006;SDS011;8186;57.652;11.968;2023-07-31T06:37:04;4.27;;;1.80;;
11006;SDS011;8186;57.652;11.968;2023-07-31T06:39:31;6.20;;;2.03;;
11006;SDS011;8186;57.652;11.968;2023-07-31T06:41:58;4.80;;;1.70;;
11006;SDS011;8186;57.652;11.968;2023-07-31T06:44:25;9.00;;;2.30;;
11006;SDS011;8186;57.652;11.968;2023-07-31T06:46:52;6.53;;;2.00;;
11006;SDS011;8186;57.652;11.968;2023-07-31T06:49:19;3.67;;;1.90;;
11006;SDS011;8186;57.652;11.968;2023-07-31T06:51:46;11.60;;;2.53;;
11006;SDS011;8186;57.652;11.968;2023-07-31T06:54:14;6.17;;;1.73;;
11006;SDS011;8186;57.652;11.968;2023-07-31T06:56:41;6.90;;;2.10;;
11006;SDS011;8186;57.652;11.968;2023-07-31T06:59:08;7.10;;;2.30;;
11006;SDS011;8186;57.652;11.968;2023-07-31T07:01:35;6.47;;;2.50;;
11006;SDS011;8186;57.652;11.968;2023-07-31T07:04:02;8.53;;;2.27;;
11006;SDS011;8186;57.652;11.968;2023-07-31T07:06:29;9.00;;;2.93;;
11006;SDS011;8186;57.652;11.968;2023-07-31T07:08:56;9.27;;;2.60;;
11006;SDS011;8186;57.652;11.968;2023-07-31T07:11:24;4.73;;;2.20;;
11006;SDS011;8186;57.652;11.968;2023-07-31T07:13:51;8.60;;;2.20;;
11006;SDS011;8186;57.652;11.968;2023-07-31T07:16:18;6.37;;;2.20;;
11006;SDS011;8186;57.652;11.968;2023-07-31T07:18:45;10.50;;;2.63;;
11006;SDS011;8186;57.652;11.968;2023-07-31T07:21:12;7.97;;;3.30;;
11006;SDS011;8186;57.652;11.968;2023-07-31T07:23:41;5.57;;;2.43;;
11006;SDS011;8186;57.652;11.968;2023-07-31T07:26:08;6.60;;;2.33;;
11006;SDS011;8186;57.652;11.968;2023-07-31T07:28:36;9.47;;;2.93;;
11006;SDS011;8186;57.652;11.968;2023-07-31T07:31:03;4.23;;;2.30;;
11006;SDS011;8186;57.652;11.968;2023-07-31T07:33:30;7.83;;;2.63;;
11006;SDS011;8186;57.652;11.968;2023-07-31T07:35:59;6.63;;;2.30;;
11006;SDS011;8186;57.652;11.968;2023-07-31T07:38:27;6.87;;;2.40;;
11006;SDS011;8186;57.652;11.968;2023-07-31T07:40:54;10.57;;;2.50;;
11006;SDS011;8186;57.652;11.968;2023-07-31T07:43:21;5.87;;;2.47;;
11006;SDS011;8186;57.652;11.968;2023-07-31T07:45:49;4.83;;;2.47;;
11006;SDS011;8186;57.652;11.968;2023-07-31T07:48:16;7.37;;;2.40;;
11006;SDS011;8186;57.652;11.968;2023-07-31T07:50:43;7.43;;;2.50;;
11006;SDS011;8186;57.652;11.968;2023-07-31T07:53:10;7.03;;;2.77;;
11006;SDS011;8186;57.652;11.968;2023-07-31T07:55:37;5.57;;;2.30;;
11006;SDS011;8186;57.652;11.968;2023-07-31T07:58:03;5.53;;;2.20;;
11006;SDS011;8186;57.652;11.968;2023-07-31T08:00:30;6.07;;;2.10;;
11006;SDS011;8186;57.652;11.968;2023-07-31T08:02:59;4.33;;;1.77;;
11006;SDS011;8186;57.652;11.968;2023-07-31T08:05:26;6.73;;;1.80;;
11006;SDS011;8186;57.652;11.968;2023-07-31T08:07:52;6.43;;;1.90;;
11006;SDS011;8186;57.652;11.968;2023-07-31T08:10:19;5.43;;;2.10;;
11006;SDS011;8186;57.652;11.968;2023-07-31T08:12:46;6.57;;;1.90;;
11006;SDS011;8186;57.652;11.968;2023-07-31T08:15:13;5.47;;;1.90;;
11006;SDS011;8186;57.652;11.968;2023-07-31T08:17:40;4.60;;;2.00;;
11006;SDS011;8186;57.652;11.968;2023-07-31T08:20:09;6.97;;;2.07;;
11006;SDS011;8186;57.652;11.968;2023-07-31T08:22:37;3.83;;;2.13;;
11006;SDS011;8186;57.652;11.968;2023-07-31T08:25:04;7.90;;;2.37;;
11006;SDS011;8186;57.652;11.968;2023-07-31T08:27:32;4.90;;;2.10;;
11006;SDS011;8186;57.652;11.968;2023-07-31T08:29:59;6.93;;;2.23;;
11006;SDS011;8186;57.652;11.968;2023-07-31T08:32:25;3.97;;;1.97;;
11006;SDS011;8186;57.652;11.968;2023-07-31T08:34:52;4.63;;;1.67;;
11006;SDS011;8186;57.652;11.968;2023-07-31T08:37:21;2.23;;;1.40;;
11006;SDS011;8186;57.652;11.968;2023-07-31T08:39:48;3.70;;;1.53;;
11006;SDS011;8186;57.652;11.968;2023-07-31T08:42:14;3.17;;;1.40;;
11006;SDS011;8186;57.652;11.968;2023-07-31T08:44:41;2.97;;;1.20;;
11006;SDS011;8186;57.652;11.968;2023-07-31T08:47:10;3.20;;;1.27;;
11006;SDS011;8186;57.652;11.968;2023-07-31T08:49:37;3.07;;;1.10;;
11006;SDS011;8186;57.652;11.968;2023-07-31T08:52:05;1.43;;;0.87;;
11006;SDS011;8186;57.652;11.968;2023-07-31T08:54:34;3.53;;;1.07;;
11006;SDS011;8186;57.652;11.968;2023-07-31T08:57:01;3.03;;;1.33;;
11006;SDS011;8186;57.652;11.968;2023-07-31T08:59:29;2.40;;;1.10;;
11006;SDS011;8186;57.652;11.968;2023-07-31T09:01:57;2.33;;;0.90;;
11006;SDS011;8186;57.652;11.968;2023-07-31T09:04:26;2.10;;;1.10;;
11006;SDS011;8186;57.652;11.968;2023-07-31T09:06:54;2.07;;;1.10;;
11006;SDS011;8186;57.652;11.968;2023-07-31T09:09:24;2.77;;;1.10;;
11006;SDS011;8186;57.652;11.968;2023-07-31T09:11:52;1.53;;;1.07;;
11006;SDS011;8186;57.652;11.968;2023-07-31T09:14:18;3.43;;;1.00;;
11006;SDS011;8186;57.652;11.968;2023-07-31T09:16:52;3.17;;;1.30;;
11006;SDS011;8186;57.652;11.968;2023-07-31T09:19:26;2.97;;;1.20;;
11006;SDS011;8186;57.652;11.968;2023-07-31T09:21:53;4.33;;;1.37;;
11006;SDS011;8186;57.652;11.968;2023-07-31T09:24:26;4.80;;;1.50;;
11006;SDS011;8186;57.652;11.968;2023-07-31T09:26:56;3.07;;;0.90;;
11006;SDS011;8186;57.652;11.968;2023-07-31T09:29:25;2.43;;;1.30;;
11006;SDS011;8186;57.652;11.968;2023-07-31T09:31:53;1.57;;;0.90;;
11006;SDS011;8186;57.652;11.968;2023-07-31T09:34:20;2.70;;;1.20;;
11006;SDS011;8186;57.652;11.968;2023-07-31T09:36:56;4.57;;;1.40;;
11006;SDS011;8186;57.652;11.968;2023-07-31T09:39:24;2.60;;;1.10;;
11006;SDS011;8186;57.652;11.968;2023-07-31T09:41:53;2.63;;;1.23;;
11006;SDS011;8186;57.652;11.968;2023-07-31T09:44:22;2.23;;;0.87;;
11006;SDS011;8186;57.652;11.968;2023-07-31T09:47:03;2.63;;;1.00;;
11006;SDS011;8186;57.652;11.968;2023-07-31T09:49:31;3.97;;;1.10;;
11006;SDS011;8186;57.652;11.968;2023-07-31T09:51:58;1.00;;;0.90;;
11006;SDS011;8186;57.652;11.968;2023-07-31T09:54:25;2.80;;;1.53;;
11006;SDS011;8186;57.652;11.968;2023-07-31T09:56:53;4.37;;;1.10;;
11006;SDS011;8186;57.652;11.968;2023-07-31T09:59:22;2.40;;;1.03;;
11006;SDS011;8186;57.652;11.968;2023-07-31T10:01:49;3.43;;;1.10;;
11006;SDS011;8186;57.652;11.968;2023-07-31T10:04:17;4.00;;;0.90;;
11006;SDS011;8186;57.652;11.968;2023-07-31T10:06:46;1.90;;;1.03;;
11006;SDS011;8186;57.652;11.968;2023-07-31T10:09:15;2.43;;;1.10;;
11006;SDS011;8186;57.652;11.968;2023-07-31T10:11:43;2.63;;;1.00;;
11006;SDS011;8186;57.652;11.968;2023-07-31T10:14:16;10.13;;;1.30;;
11006;SDS011;8186;57.652;11.968;2023-07-31T10:16:46;4.67;;;1.30;;
11006;SDS011;8186;57.652;11.968;2023-07-31T10:19:13;2.23;;;0.97;;
11006;SDS011;8186;57.652;11.968;2023-07-31T10:21:41;2.20;;;1.00;;
11006;SDS011;8186;57.652;11.968;2023-07-31T10:24:09;3.27;;;1.00;;
11006;SDS011;8186;57.652;11.968;2023-07-31T10:26:36;1.90;;;0.97;;
11006;SDS011;8186;57.652;11.968;2023-07-31T10:29:04;3.77;;;0.93;;
11006;SDS011;8186;57.652;11.968;2023-07-31T10:31:31;1.93;;;1.17;;
11006;SDS011;8186;57.652;11.968;2023-07-31T10:34:00;4.10;;;1.07;;
11006;SDS011;8186;57.652;11.968;2023-07-31T10:36:28;2.87;;;0.80;;
11006;SDS011;8186;57.652;11.968;2023-07-31T10:38:55;3.70;;;1.00;;
11006;SDS011;8186;57.652;11.968;2023-07-31T10:41:29;2.33;;;1.00;;
11006;SDS011;8186;57.652;11.968;2023-07-31T10:43:57;5.33;;;1.00;;
11006;SDS011;8186;57.652;11.968;2023-07-31T10:46:24;2.33;;;0.97;;
11006;SDS011;8186;57.652;11.968;2023-07-31T10:48:57;3.00;;;0.90;;
11006;SDS011;8186;57.652;11.968;2023-07-31T10:51:26;2.43;;;1.07;;
11006;SDS011;8186;57.652;11.968;2023-07-31T10:56:44;2.00;;;0.93;;
11006;SDS011;8186;57.652;11.968;2023-07-31T10:59:12;3.27;;;1.30;;
11006;SDS011;8186;57.652;11.968;2023-07-31T11:01:52;2.00;;;1.00;;
11006;SDS011;8186;57.652;11.968;2023-07-31T11:04:23;2.80;;;1.03;;
11006;SDS011;8186;57.652;11.968;2023-07-31T11:06:58;3.77;;;1.13;;
11006;SDS011;8186;57.652;11.968;2023-07-31T11:09:30;2.35;;;1.00;;
11006;SDS011;8186;57.652;11.968;2023-07-31T11:11:58;2.67;;;0.80;;
11006;SDS011;8186;57.652;11.968;2023-07-31T11:14:25;2.93;;;1.07;;
11006;SDS011;8186;57.652;11.968;2023-07-31T11:16:53;2.38;;;1.00;;
11006;SDS011;8186;57.652;11.968;2023-07-31T11:19:22;3.05;;;0.88;;
11006;SDS011;8186;57.652;11.968;2023-07-31T11:21:50;1.33;;;0.68;;
11006;SDS011;8186;57.652;11.968;2023-07-31T11:24:19;4.28;;;0.95;;
11006;SDS011;8186;57.652;11.968;2023-07-31T11:26:50;1.80;;;0.70;;
11006;SDS011;8186;57.652;11.968;2023-07-31T11:29:17;2.45;;;0.98;;
11006;SDS011;8186;57.652;11.968;2023-07-31T11:31:45;1.50;;;0.82;;
11006;SDS011;8186;57.652;11.968;2023-07-31T11:34:12;3.00;;;0.80;;
11006;SDS011;8186;57.652;11.968;2023-07-31T11:36:40;2.63;;;1.15;;
11006;SDS011;8186;57.652;11.968;2023-07-31T11:39:07;2.63;;;0.98;;
11006;SDS011;8186;57.652;11.968;2023-07-31T11:41:36;2.78;;;1.02;;
11006;SDS011;8186;57.652;11.968;2023-07-31T11:44:03;2.92;;;0.95;;
11006;SDS011;8186;57.652;11.968;2023-07-31T11:46:30;3.55;;;1.05;;
11006;SDS011;8186;57.652;11.968;2023-07-31T11:48:58;3.42;;;0.82;;
11006;SDS011;8186;57.652;11.968;2023-07-31T11:51:26;2.72;;;1.00;;
11006;SDS011;8186;57.652;11.968;2023-07-31T11:53:55;2.03;;;1.00;;
11006;SDS011;8186;57.652;11.968;2023-07-31T11:56:23;2.95;;;1.10;;
11006;SDS011;8186;57.652;11.968;2023-07-31T11:58:57;3.20;;;0.80;;
11006;SDS011;8186;57.652;11.968;2023-07-31T12:01:25;1.15;;;0.80;;
11006;SDS011;8186;57.652;11.968;2023-07-31T12:03:53;2.90;;;1.20;;
11006;SDS011;8186;57.652;11.968;2023-07-31T12:06:20;1.45;;;0.70;;
11006;SDS011;8186;57.652;11.968;2023-07-31T12:08:47;3.70;;;1.38;;
11006;SDS011;8186;57.652;11.968;2023-07-31T12:11:14;1.42;;;0.98;;
11006;SDS011;8186;57.652;11.968;2023-07-31T12:13:43;3.33;;;1.00;;
11006;SDS011;8186;57.652;11.968;2023-07-31T12:16:11;4.53;;;1.13;;
11006;SDS011;8186;57.652;11.968;2023-07-31T12:18:38;4.53;;;1.10;;
11006;SDS011;8186;57.652;11.968;2023-07-31T12:21:06;3.20;;;1.30;;
11006;SDS011;8186;57.652;11.968;2023-07-31T12:23:35;2.38;;;0.90;;
11006;SDS011;8186;57.652;11.968;2023-07-31T12:26:03;3.75;;;1.42;;
11006;SDS011;8186;57.652;11.968;2023-07-31T12:28:34;3.10;;;1.10;;
11006;SDS011;8186;57.652;11.968;2023-07-31T12:31:02;3.40;;;1.25;;
11006;SDS011;8186;57.652;11.968;2023-07-31T12:33:32;6.15;;;1.23;;
11006;SDS011;8186;57.652;11.968;2023-07-31T12:36:01;2.83;;;1.00;;
11006;SDS011;8186;57.652;11.968;2023-07-31T12:38:28;3.50;;;1.25;;
11006;SDS011;8186;57.652;11.968;2023-07-31T12:40:55;5.03;;;1.55;;
11006;SDS011;8186;57.652;11.968;2023-07-31T12:43:22;3.85;;;1.10;;
11006;SDS011;8186;57.652;11.968;2023-07-31T12:45:49;5.78;;;1.50;;
11006;SDS011;8186;57.652;11.968;2023-07-31T12:48:16;2.95;;;1.48;;
11006;SDS011;8186;57.652;11.968;2023-07-31T12:50:45;2.92;;;1.00;;
11006;SDS011;8186;57.652;11.968;2023-07-31T12:53:12;4.00;;;1.20;;
11006;SDS011;8186;57.652;11.968;2023-07-31T12:55:39;2.58;;;1.30;;
11006;SDS011;8186;57.652;11.968;2023-07-31T12:58:06;3.35;;;0.90;;
11006;SDS011;8186;57.652;11.968;2023-07-31T13:00:33;3.90;;;1.20;;
11006;SDS011;8186;57.652;11.968;2023-07-31T13:03:00;5.28;;;1.33;;
11006;SDS011;8186;57.652;11.968;2023-07-31T13:05:27;3.03;;;1.20;;
11006;SDS011;8186;57.652;11.968;2023-07-31T13:07:55;4.00;;;1.17;;
11006;SDS011;8186;57.652;11.968;2023-07-31T13:10:22;1.80;;;1.02;;
11006;SDS011;8186;57.652;11.968;2023-07-31T13:12:51;2.78;;;0.98;;
11006;SDS011;8186;57.652;11.968;2023-07-31T13:15:18;3.17;;;1.45;;
11006;SDS011;8186;57.652;11.968;2023-07-31T13:17:45;2.72;;;1.10;;
11006;SDS011;8186;57.652;11.968;2023-07-31T13:20:12;1.75;;;1.15;;
11006;SDS011;8186;57.652;11.968;2023-07-31T13:22:39;3.65;;;1.40;;
11006;SDS011;8186;57.652;11.968;2023-07-31T13:25:08;3.10;;;1.10;;
11006;SDS011;8186;57.652;11.968;2023-07-31T13:27:35;5.07;;;2.83;;
11006;SDS011;8186;57.652;11.968;2023-07-31T13:30:02;4.00;;;2.33;;
11006;SDS011;8186;57.652;11.968;2023-07-31T13:32:30;6.93;;;1.77;;
11006;SDS011;8186;57.652;11.968;2023-07-31T13:34:56;3.53;;;1.80;;
11006;SDS011;8186;57.652;11.968;2023-07-31T13:37:24;5.53;;;2.72;;
11006;SDS011;8186;57.652;11.968;2023-07-31T13:39:51;6.43;;;2.88;;
11006;SDS011;8186;57.652;11.968;2023-07-31T13:42:19;5.20;;;1.90;;
11006;SDS011;8186;57.652;11.968;2023-07-31T13:44:47;5.80;;;1.80;;
11006;SDS011;8186;57.652;11.968;2023-07-31T13:47:14;6.10;;;2.05;;
11006;SDS011;8186;57.652;11.968;2023-07-31T13:49:40;5.43;;;1.77;;
11006;SDS011;8186;57.652;11.968;2023-07-31T13:52:08;6.00;;;1.88;;
11006;SDS011;8186;57.652;11.968;2023-07-31T13:54:35;5.32;;;2.05;;
11006;SDS011;8186;57.652;11.968;2023-07-31T13:57:02;9.10;;;2.55;;
11006;SDS011;8186;57.652;11.968;2023-07-31T13:59:31;9.38;;;3.20;;
11006;SDS011;8186;57.652;11.968;2023-07-31T14:01:58;9.57;;;2.17;;
11006;SDS011;8186;57.652;11.968;2023-07-31T14:04:25;8.23;;;1.90;;
11006;SDS011;8186;57.652;11.968;2023-07-31T14:06:52;8.38;;;2.13;;
11006;SDS011;8186;57.652;11.968;2023-07-31T14:09:18;6.18;;;2.28;;
11006;SDS011;8186;57.652;11.968;2023-07-31T14:11:45;4.15;;;1.75;;
11006;SDS011;8186;57.652;11.968;2023-07-31T14:14:12;4.85;;;1.65;;
11006;SDS011;8186;57.652;11.968;2023-07-31T14:16:40;7.82;;;1.90;;
11006;SDS011;8186;57.652;11.968;2023-07-31T14:19:07;5.80;;;2.10;;
11006;SDS011;8186;57.652;11.968;2023-07-31T14:21:34;11.27;;;5.18;;
11006;SDS011;8186;57.652;11.968;2023-07-31T14:24:02;8.60;;;4.03;;
11006;SDS011;8186;57.652;11.968;2023-07-31T14:26:29;9.45;;;3.75;;
11006;SDS011;8186;57.652;11.968;2023-07-31T14:28:56;9.27;;;3.47;;
11006;SDS011;8186;57.652;11.968;2023-07-31T14:31:22;9.30;;;2.90;;
11006;SDS011;8186;57.652;11.968;2023-07-31T14:33:51;7.10;;;2.10;;
11006;SDS011;8186;57.652;11.968;2023-07-31T14:36:18;6.65;;;2.20;;
11006;SDS011;8186;57.652;11.968;2023-07-31T14:38:45;7.20;;;1.70;;
11006;SDS011;8186;57.652;11.968;2023-07-31T14:41:11;6.15;;;1.55;;
11006;SDS011;8186;57.652;11.968;2023-07-31T14:43:38;6.30;;;2.10;;
11006;SDS011;8186;57.652;11.968;2023-07-31T14:46:05;7.80;;;2.65;;
11006;SDS011;8186;57.652;11.968;2023-07-31T14:48:32;4.55;;;1.80;;
11006;SDS011;8186;57.652;11.968;2023-07-31T14:51:00;6.88;;;3.30;;
11006;SDS011;8186;57.652;11.968;2023-07-31T14:53:27;6.43;;;1.60;;